Time;durP1;ratioP1;P1;durP2;ratioP2;P2;SDS_P1;SDS_P2;PMS_P1;PMS_P2;Temp;Humidity;BMP_temperature;BMP_pressure;BME280_temperature;BME280_humidity;BME280_pressure;Samples;Min_cycle;Max_cycle;Signal;HPM_P1;HPM_P2
2021/07/05 00:00:36;;;;;;;6.68;5.90;;;;;;;16.93;66.48;98007.22;5049360;28;20238;-65
2021/07/05 00:03:03;;;;;;;7.45;5.38;;;;;;;17.04;65.73;98007.47;5052276;28;20278;-65
2021/07/05 00:05:28;;;;;;;5.82;5.22;;;;;;;17.22;65.11;98001.28;5050562;28;20032;-65
2021/07/05 00:07:54;;;;;;;5.97;5.38;;;;;;;17.51;64.00;98009.19;5051117;28;20086;-65
2021/07/05 00:10:22;;;;;;;9.00;8.10;;;;;;;17.91;63.20;98000.78;5052332;28;20393;-65
2021/07/05 00:12:48;;;;;;;5.53;4.90;;;;;;;18.12;63.22;98007.31;5049235;28;20040;-65
2021/07/05 00:15:19;;;;;;;6.40;5.78;;;;;;;18.34;63.42;98013.81;5050678;28;20057;-64
2021/07/05 00:17:46;;;;;;;5.97;5.32;;;;;;;18.41;63.14;97999.56;5048980;28;20057;-65
2021/07/05 00:20:12;;;;;;;7.38;5.78;;;;;;;18.42;63.39;98011.59;5049769;28;20374;-65
2021/07/05 00:22:37;;;;;;;5.43;4.93;;;;;;;18.53;63.16;98007.47;5047845;28;20037;-65
2021/07/05 00:25:05;;;;;;;6.45;4.97;;;;;;;18.62;63.33;98006.06;5050185;28;20362;-65
2021/07/05 00:27:30;;;;;;;8.05;5.15;;;;;;;18.59;63.64;98003.63;5049728;28;20028;-65
2021/07/05 00:29:56;;;;;;;5.85;5.22;;;;;;;18.64;64.04;97993.81;5035586;28;20388;-64
2021/07/05 00:32:21;;;;;;;5.93;5.30;;;;;;;18.61;64.52;98001.78;5048647;28;20044;-65
2021/07/05 00:34:47;;;;;;;5.88;4.80;;;;;;;18.63;64.86;97999.94;5049300;28;20095;-65
2021/07/05 00:37:12;;;;;;;5.50;5.00;;;;;;;18.60;65.13;98005.31;5052256;28;20021;-65
2021/07/05 00:39:38;;;;;;;6.60;4.75;;;;;;;18.63;65.53;97999.94;5051622;28;20050;-65
2021/07/05 00:42:03;;;;;;;5.30;4.80;;;;;;;18.65;65.66;98004.13;5049954;28;20049;-65
2021/07/05 00:44:29;;;;;;;4.90;4.50;;;;;;;18.66;65.81;97998.00;5050528;28;20025;-64
2021/07/05 00:46:54;;;;;;;5.03;4.53;;;;;;;18.66;65.95;98004.94;5050410;28;20051;-65
2021/07/05 00:49:19;;;;;;;4.35;3.95;;;;;;;18.63;66.22;98000.75;5050208;28;20032;-65
2021/07/05 00:51:45;;;;;;;5.38;4.97;;;;;;;18.64;66.63;98004.19;5036323;28;20029;-65
2021/07/05 00:54:11;;;;;;;5.63;5.00;;;;;;;18.63;66.13;98010.31;5048055;28;20029;-65
2021/07/05 00:56:36;;;;;;;5.97;5.47;;;;;;;18.61;65.85;98007.00;5052598;28;20033;-65
2021/07/05 00:59:02;;;;;;;4.38;3.90;;;;;;;18.59;66.04;98012.25;5049900;28;20052;-65
2021/07/05 01:01:28;;;;;;;5.75;5.25;;;;;;;18.52;66.30;98015.31;5046831;28;20255;-65
2021/07/05 01:03:53;;;;;;;5.25;4.75;;;;;;;18.50;65.46;98014.59;5050101;28;20473;-65
2021/07/05 01:06:19;;;;;;;5.22;4.82;;;;;;;18.41;65.66;98015.97;5048871;28;20028;-65
2021/07/05 01:08:44;;;;;;;6.03;5.03;;;;;;;18.25;66.05;98013.44;5049153;28;20029;-65
2021/07/05 01:11:10;;;;;;;5.13;4.68;;;;;;;18.22;65.84;98012.78;5047445;28;20040;-65
2021/07/05 01:13:36;;;;;;;5.20;4.70;;;;;;;18.25;66.25;98008.25;5048209;28;20045;-65
2021/07/05 01:16:02;;;;;;;4.45;4.05;;;;;;;18.30;66.22;98017.50;5049977;28;20049;-65
2021/07/05 01:18:27;;;;;;;5.05;4.55;;;;;;;18.31;66.64;98009.66;5050517;28;20496;-65
2021/07/05 01:20:53;;;;;;;6.60;4.60;;;;;;;18.34;66.52;98003.44;5048037;28;20033;-65
2021/07/05 01:23:19;;;;;;;5.88;5.20;;;;;;;18.37;66.46;98009.28;5048923;28;20255;-65
2021/07/05 01:25:44;;;;;;;6.50;4.10;;;;;;;18.42;66.53;98017.63;5049400;28;20286;-65
2021/07/05 01:28:11;;;;;;;4.28;3.72;;;;;;;18.42;66.88;98017.63;5047664;28;20112;-65
2021/07/05 01:30:36;;;;;;;4.50;4.10;;;;;;;18.43;66.88;98010.66;5049061;28;20040;-65
2021/07/05 01:33:06;;;;;;;5.85;3.85;;;;;;;18.45;66.66;98014.84;5050265;28;20032;-65
2021/07/05 01:35:32;;;;;;;3.97;3.67;;;;;;;18.44;66.90;98005.41;5048100;28;20320;-65
2021/07/05 01:37:58;;;;;;;7.10;3.67;;;;;;;18.42;67.09;98020.22;5045924;28;20037;-65
2021/07/05 01:40:24;;;;;;;4.18;3.78;;;;;;;18.45;67.13;98016.63;5049008;28;20083;-64
2021/07/05 01:42:54;;;;;;;4.00;3.65;;;;;;;18.48;66.95;98012.06;5048441;28;20125;-65
2021/07/05 01:45:22;;;;;;;3.47;3.17;;;;;;;18.53;66.69;98017.00;5048994;28;20048;-64
2021/07/05 01:47:48;;;;;;;4.40;4.10;;;;;;;18.55;66.50;98015.97;5046224;28;20267;-64
2021/07/05 01:50:14;;;;;;;4.80;4.32;;;;;;;18.53;66.56;98019.59;5048430;28;20047;-64
2021/07/05 01:52:40;;;;;;;3.78;3.47;;;;;;;18.49;66.70;98013.75;5048585;28;20166;-65
2021/07/05 01:55:06;;;;;;;3.13;2.92;;;;;;;18.50;66.58;98024.97;5049563;28;20045;-64
2021/07/05 01:57:33;;;;;;;3.38;3.08;;;;;;;18.55;66.50;98020.34;5048517;28;20071;-64
2021/07/05 02:00:01;;;;;;;3.95;3.40;;;;;;;18.53;66.25;98022.19;5049589;28;20386;-64
2021/07/05 02:02:27;;;;;;;3.47;3.20;;;;;;;18.55;66.36;98022.94;5048377;28;20041;-65
2021/07/05 02:04:53;;;;;;;3.85;3.40;;;;;;;18.59;66.03;98027.00;5049756;28;20206;-65
2021/07/05 02:07:19;;;;;;;4.22;3.83;;;;;;;18.62;65.66;98022.50;5049803;28;20420;-65
2021/07/05 02:09:45;;;;;;;3.22;2.92;;;;;;;18.66;65.79;98028.31;5033502;28;20037;-65
2021/07/05 02:12:12;;;;;;;3.40;3.10;;;;;;;18.65;65.69;98026.66;5047770;28;20060;-65
2021/07/05 02:14:40;;;;;;;3.45;3.25;;;;;;;18.69;65.40;98035.91;5048305;28;20040;-65
2021/07/05 02:17:07;;;;;;;3.20;3.00;;;;;;;18.71;65.26;98028.88;5044470;28;20206;-64
2021/07/05 02:19:33;;;;;;;4.15;2.75;;;;;;;18.71;65.09;98034.88;5049729;28;20040;-65
2021/07/05 02:21:58;;;;;;;2.88;2.67;;;;;;;18.74;65.19;98039.06;5048644;28;20039;-64
2021/07/05 02:24:24;;;;;;;2.75;2.55;;;;;;;18.78;65.00;98040.56;5048080;28;20067;-64
2021/07/05 02:26:49;;;;;;;2.78;2.58;;;;;;;18.73;64.99;98039.16;5049562;28;20355;-65
2021/07/05 02:29:14;;;;;;;2.97;2.75;;;;;;;18.70;64.94;98048.81;5049132;28;20152;-65
2021/07/05 02:31:40;;;;;;;3.15;2.85;;;;;;;18.69;64.93;98049.75;5049727;28;20294;-65
2021/07/05 02:34:06;;;;;;;2.65;2.45;;;;;;;18.76;64.94;98050.19;5049386;28;20021;-65
2021/07/05 02:36:31;;;;;;;2.65;2.53;;;;;;;18.74;65.14;98054.66;5049706;28;20029;-65
2021/07/05 02:38:57;;;;;;;3.00;2.55;;;;;;;18.71;65.34;98049.66;5049333;28;20149;-64
2021/07/05 02:41:22;;;;;;;2.42;2.30;;;;;;;18.68;65.35;98055.00;5051003;28;20278;-65
2021/07/05 02:43:48;;;;;;;2.75;2.00;;;;;;;18.71;65.43;98052.25;5052934;28;20029;-65
2021/07/05 02:46:13;;;;;;;2.33;2.20;;;;;;;18.69;65.58;98052.34;5052078;28;20033;-66
2021/07/05 02:48:40;;;;;;;2.75;2.33;;;;;;;18.72;65.20;98040.91;5050720;28;20147;-65
2021/07/05 02:51:08;;;;;;;2.03;1.92;;;;;;;18.79;64.94;98062.16;5051502;28;20079;-65
2021/07/05 02:53:34;;;;;;;4.18;2.20;;;;;;;18.80;64.82;98049.06;5050139;28;20310;-65
2021/07/05 02:56:00;;;;;;;2.40;1.85;;;;;;;18.81;65.16;98052.50;5038482;28;20029;-65
2021/07/05 02:58:25;;;;;;;2.97;1.92;;;;;;;18.80;64.91;98072.44;5051372;28;20047;-65
2021/07/05 03:00:54;;;;;;;3.25;2.22;;;;;;;18.82;64.73;98062.81;5052260;28;20100;-66
2021/07/05 03:03:20;;;;;;;2.47;2.30;;;;;;;18.78;65.09;98076.91;5051760;28;20036;-66
2021/07/05 03:05:46;;;;;;;2.25;2.10;;;;;;;18.85;64.15;98073.00;5052338;28;20029;-66
2021/07/05 03:08:11;;;;;;;2.35;2.15;;;;;;;18.81;64.42;98081.91;5051383;28;20044;-65
2021/07/05 03:10:38;;;;;;;4.10;1.83;;;;;;;18.80;64.66;98088.03;5051231;28;20029;-65
2021/07/05 03:13:07;;;;;;;1.80;1.70;;;;;;;18.87;64.56;98084.16;5050383;28;20599;-65
2021/07/05 03:15:33;;;;;;;2.38;1.95;;;;;;;18.86;64.34;98099.81;5051711;28;20132;-64
2021/07/05 03:18:00;;;;;;;2.20;1.90;;;;;;;18.83;64.53;98100.84;5035613;28;20036;-64
2021/07/05 03:20:29;;;;;;;1.73;1.63;;;;;;;18.87;64.55;98101.50;5037982;28;20260;-65
2021/07/05 03:22:57;;;;;;;2.15;2.05;;;;;;;18.88;64.02;98093.63;5051798;28;20028;-64
2021/07/05 03:25:25;;;;;;;2.00;1.90;;;;;;;18.97;63.89;98095.63;5036789;28;20029;-65
2021/07/05 03:27:52;;;;;;;2.03;1.85;;;;;;;19.01;63.51;98110.09;5025807;28;20029;-65
2021/07/05 03:30:20;;;;;;;3.45;1.75;;;;;;;19.04;63.33;98112.53;5050707;28;20043;-64
2021/07/05 03:32:46;;;;;;;1.80;1.70;;;;;;;19.07;63.17;98114.09;5052050;28;20035;-64
2021/07/05 03:35:13;;;;;;;1.50;1.45;;;;;;;19.06;63.39;98121.06;5050923;28;20029;-64
2021/07/05 03:37:40;;;;;;;1.77;1.67;;;;;;;19.11;63.24;98126.81;5051658;28;20032;-64
2021/07/05 03:40:09;;;;;;;1.75;1.60;;;;;;;19.13;63.41;98122.38;5049376;28;20046;-64
2021/07/05 03:42:34;;;;;;;1.95;1.85;;;;;;;19.16;63.00;98135.16;5051950;28;20111;-64
2021/07/05 03:45:00;;;;;;;1.90;1.80;;;;;;;19.18;63.17;98133.28;5052775;28;20324;-64
2021/07/05 03:47:26;;;;;;;1.38;1.33;;;;;;;19.22;62.89;98128.75;5051662;28;20063;-64
2021/07/05 03:49:52;;;;;;;2.08;1.88;;;;;;;19.16;62.73;98122.16;5050597;28;20080;-63
2021/07/05 03:52:17;;;;;;;2.25;2.00;;;;;;;19.29;62.54;98124.00;5051317;28;20071;-63
2021/07/05 03:54:43;;;;;;;1.65;1.55;;;;;;;19.29;62.44;98121.41;5050902;28;20033;-64
2021/07/05 03:57:21;;;;;;;2.13;2.03;;;;;;;19.21;62.58;98127.09;5051603;28;20393;-64
2021/07/05 03:59:50;;;;;;;2.67;1.95;;;;;;;19.34;62.78;98134.94;5049800;28;20033;-63
2021/07/05 04:02:17;;;;;;;1.90;1.80;;;;;;;19.35;62.44;98134.03;5051570;28;20047;-64
2021/07/05 04:04:42;;;;;;;1.95;1.85;;;;;;;19.41;61.74;98138.84;5052622;28;20537;-65
2021/07/05 04:07:08;;;;;;;1.90;1.80;;;;;;;19.38;62.27;98139.03;5051387;28;20345;-65
2021/07/05 04:09:33;;;;;;;2.00;1.90;;;;;;;19.36;62.15;98133.91;5049511;28;20271;-65
2021/07/05 04:11:59;;;;;;;1.92;1.83;;;;;;;19.38;61.83;98134.66;5051258;28;20035;-65
2021/07/05 04:14:24;;;;;;;2.33;2.15;;;;;;;19.46;61.95;98147.22;5049938;28;20160;-64
2021/07/05 04:16:49;;;;;;;1.92;1.83;;;;;;;19.46;62.42;98148.06;5051053;28;20051;-64
2021/07/05 04:19:15;;;;;;;2.20;2.10;;;;;;;19.50;62.25;98133.09;5050003;28;20025;-64
2021/07/05 04:21:40;;;;;;;1.90;1.80;;;;;;;19.38;62.48;98139.03;5050138;28;20090;-65
2021/07/05 04:24:06;;;;;;;2.20;1.92;;;;;;;19.41;62.32;98138.84;5033818;28;20479;-65
2021/07/05 04:26:32;;;;;;;1.75;1.65;;;;;;;19.41;62.85;98134.47;5047202;28;20025;-65
2021/07/05 04:28:57;;;;;;;2.35;2.17;;;;;;;19.39;62.82;98151.91;5050573;28;20325;-65
2021/07/05 04:31:23;;;;;;;2.50;2.40;;;;;;;19.31;63.30;98148.16;5050600;28;20032;-65
2021/07/05 04:33:48;;;;;;;2.00;1.83;;;;;;;19.22;63.53;98141.75;5052807;28;20097;-65
2021/07/05 04:36:14;;;;;;;1.95;1.85;;;;;;;19.32;63.46;98149.78;5050520;28;20298;-64
2021/07/05 04:38:40;;;;;;;2.42;1.80;;;;;;;19.32;63.01;98148.03;5048863;28;20071;-64
2021/07/05 04:41:06;;;;;;;2.65;2.35;;;;;;;19.33;63.53;98146.28;5046884;28;20043;-64
2021/07/05 04:43:31;;;;;;;2.10;2.00;;;;;;;19.27;63.55;98160.47;5051705;28;20033;-65
2021/07/05 04:46:02;;;;;;;2.00;1.90;;;;;;;19.31;63.29;98145.56;5050490;28;20029;-63
2021/07/05 04:48:28;;;;;;;2.70;2.60;;;;;;;19.44;63.33;98159.47;5048200;28;20386;-64
2021/07/05 04:50:53;;;;;;;1.92;1.83;;;;;;;19.29;63.42;98156.03;5050605;28;20065;-64
2021/07/05 04:53:19;;;;;;;2.63;1.80;;;;;;;19.32;63.67;98155.84;5051267;28;20120;-64
2021/07/05 04:55:44;;;;;;;1.88;1.77;;;;;;;19.30;63.54;98160.31;5049743;28;20036;-64
2021/07/05 04:58:10;;;;;;;1.80;1.70;;;;;;;19.37;63.21;98155.56;5050440;28;20086;-64
2021/07/05 05:00:35;;;;;;;2.13;2.03;;;;;;;19.50;62.86;98170.34;5050795;28;20325;-65
2021/07/05 05:03:04;;;;;;;2.00;1.90;;;;;;;19.65;63.01;98170.31;5049881;28;20353;-64
2021/07/05 05:05:30;;;;;;;1.85;1.75;;;;;;;19.58;62.37;98162.88;5047373;28;20030;-64
2021/07/05 05:07:56;;;;;;;1.90;1.80;;;;;;;19.53;63.17;98164.09;5050666;28;20281;-64
2021/07/05 05:10:22;;;;;;;1.70;1.60;;;;;;;19.52;63.11;98175.41;5049981;28;20029;-65
2021/07/05 05:12:48;;;;;;;1.67;1.58;;;;;;;19.63;62.78;98167.81;5049376;28;20047;-64
2021/07/05 05:15:17;;;;;;;1.50;1.50;;;;;;;19.62;62.47;98168.72;5049423;28;20048;-65
2021/07/05 05:17:43;;;;;;;1.50;1.50;;;;;;;19.77;62.44;98172.97;5050323;28;20035;-65
2021/07/05 05:20:10;;;;;;;1.90;1.80;;;;;;;19.69;62.81;98179.59;5049771;28;20071;-65
2021/07/05 05:22:36;;;;;;;1.40;1.40;;;;;;;19.83;62.22;98187.34;5049221;28;20044;-65
2021/07/05 05:25:03;;;;;;;1.60;1.50;;;;;;;19.82;61.77;98185.66;5048944;28;20421;-65
2021/07/05 05:27:28;;;;;;;1.42;1.42;;;;;;;19.78;61.60;98197.19;5050692;28;20075;-64
2021/07/05 05:29:54;;;;;;;1.52;1.50;;;;;;;19.88;61.54;98199.13;5049637;28;20033;-64
2021/07/05 05:32:19;;;;;;;1.42;1.42;;;;;;;19.96;60.71;98207.28;5050098;28;20028;-63
2021/07/05 05:34:45;;;;;;;1.33;1.33;;;;;;;20.02;60.26;98196.50;5049342;28;20302;-64
2021/07/05 05:37:10;;;;;;;2.05;1.40;;;;;;;20.05;59.50;98198.91;5049220;28;20388;-64
2021/07/05 05:39:36;;;;;;;1.45;1.35;;;;;;;20.13;59.10;98197.56;5049597;28;20282;-64
2021/07/05 05:42:02;;;;;;;1.70;1.60;;;;;;;20.16;58.90;98208.59;5050137;28;20040;-64
2021/07/05 05:44:27;;;;;;;1.27;1.27;;;;;;;20.12;59.29;98196.72;5047861;28;20289;-64
2021/07/05 05:46:52;;;;;;;1.40;1.40;;;;;;;20.23;58.90;98202.09;5048126;28;20036;-64
2021/07/05 05:49:18;;;;;;;1.52;1.30;;;;;;;20.32;58.43;98200.69;5051055;28;20036;-64
2021/07/05 05:51:43;;;;;;;1.50;1.50;;;;;;;20.35;58.33;98180.50;5047996;28;20040;-64
2021/07/05 05:54:10;;;;;;;2.20;1.40;;;;;;;20.47;57.82;98200.50;5042540;28;20028;-64
2021/07/05 05:56:38;;;;;;;1.38;1.38;;;;;;;20.47;57.41;98199.66;5048829;28;20060;-64
2021/07/05 05:59:05;;;;;;;1.50;1.48;;;;;;;20.60;57.48;98204.91;5049772;28;20037;-64
2021/07/05 06:01:36;;;;;;;2.15;1.73;;;;;;;20.62;57.09;98211.69;5049540;28;20282;-64
2021/07/05 06:04:01;;;;;;;1.50;1.50;;;;;;;20.54;56.52;98195.72;5047960;28;20477;-64
2021/07/05 06:06:27;;;;;;;1.50;1.50;;;;;;;20.52;56.47;98223.66;5048357;28;20565;-64
2021/07/05 06:08:53;;;;;;;1.67;1.58;;;;;;;20.60;56.23;98202.31;5049258;28;20029;-63
2021/07/05 06:11:20;;;;;;;1.70;1.60;;;;;;;20.79;54.73;98208.78;5047645;28;20060;-64
2021/07/05 06:13:46;;;;;;;1.52;1.52;;;;;;;20.90;54.33;98203.69;5049068;28;20060;-64
2021/07/05 06:16:12;;;;;;;1.77;1.38;;;;;;;21.00;53.60;98214.34;5052408;28;20025;-64
2021/07/05 06:18:38;;;;;;;1.70;1.60;;;;;;;21.29;53.16;98210.59;5052832;28;20087;-62
2021/07/05 06:21:03;;;;;;;1.73;1.70;;;;;;;21.32;52.65;98225.19;5053012;28;20408;-63
2021/07/05 06:23:29;;;;;;;2.50;1.65;;;;;;;21.55;52.15;98211.41;5052351;28;20033;-63
2021/07/05 06:25:57;;;;;;;1.30;1.30;;;;;;;21.74;51.61;98219.59;5052070;28;20044;-64
2021/07/05 06:28:24;;;;;;;1.20;1.20;;;;;;;21.55;51.34;98221.84;5052913;28;20052;-64
2021/07/05 06:30:50;;;;;;;2.13;1.40;;;;;;;21.45;51.61;98231.22;5048543;28;20280;-63
2021/07/05 06:33:18;;;;;;;1.40;1.40;;;;;;;21.57;51.36;98224.31;5050231;28;20029;-65
2021/07/05 06:35:44;;;;;;;4.82;1.80;;;;;;;21.57;50.95;98233.00;5051001;28;20024;-63
2021/07/05 06:38:11;;;;;;;1.60;1.50;;;;;;;21.51;50.97;98251.69;5051500;28;20033;-64
2021/07/05 06:40:37;;;;;;;1.50;1.50;;;;;;;21.60;50.29;98242.41;5053657;28;20407;-64
2021/07/05 06:43:03;;;;;;;6.30;1.52;;;;;;;21.72;50.50;98236.31;5051212;28;20072;-64
2021/07/05 06:45:29;;;;;;;1.30;1.30;;;;;;;21.63;49.70;98243.00;5053071;28;20029;-65
2021/07/05 06:47:55;;;;;;;1.60;1.50;;;;;;;21.41;50.55;98243.66;5047562;28;20125;-65
2021/07/05 06:50:20;;;;;;;1.90;1.73;;;;;;;21.30;50.86;98237.53;5052472;28;20443;-64
2021/07/05 06:52:45;;;;;;;1.40;1.40;;;;;;;21.14;50.97;98252.53;5049247;28;20025;-64
2021/07/05 06:55:12;;;;;;;2.08;1.95;;;;;;;21.14;51.02;98236.88;5052546;28;20025;-72
2021/07/05 06:57:39;;;;;;;1.35;1.35;;;;;;;21.14;51.29;98245.53;5051272;28;20437;-73
2021/07/05 07:00:10;;;;;;;1.60;1.60;;;;;;;21.18;51.13;98253.97;5052172;28;20190;-73
2021/07/05 07:02:37;;;;;;;1.77;1.70;;;;;;;21.26;50.68;98246.50;5049873;28;20411;-74
2021/07/05 07:05:08;;;;;;;1.70;1.60;;;;;;;21.44;50.22;98242.59;5051472;28;20024;-74
2021/07/05 07:07:33;;;;;;;1.67;1.65;;;;;;;21.43;50.08;98248.75;5050560;28;20043;-73
2021/07/05 07:10:00;;;;;;;1.55;1.55;;;;;;;21.58;49.42;98246.88;5050690;28;20033;-73
2021/07/05 07:12:25;;;;;;;1.52;1.50;;;;;;;21.60;48.89;98214.50;5051893;28;20025;-73
2021/07/05 07:14:50;;;;;;;1.40;1.30;;;;;;;21.73;48.85;98232.72;5046620;28;20341;-74
2021/07/05 07:17:32;;;;;;;1.30;1.30;;;;;;;21.99;48.49;98241.38;5052231;28;20037;-73
2021/07/05 07:19:58;;;;;;;1.30;1.30;;;;;;;22.04;48.16;98253.16;5050730;28;20099;-72
2021/07/05 07:22:23;;;;;;;1.13;1.13;;;;;;;21.91;48.30;98252.31;5050874;28;20047;-71
2021/07/05 07:24:49;;;;;;;1.50;1.40;;;;;;;22.10;48.30;98241.44;5052381;28;20025;-71
2021/07/05 07:27:15;;;;;;;1.50;1.50;;;;;;;22.07;47.57;98258.16;5050862;28;20037;-73
2021/07/05 07:29:40;;;;;;;1.67;1.50;;;;;;;21.93;48.03;98244.44;5050588;28;20029;-73
2021/07/05 07:32:06;;;;;;;1.48;1.38;;;;;;;22.04;47.77;98247.09;5051831;28;20051;-74
2021/07/05 07:34:32;;;;;;;1.70;1.60;;;;;;;22.02;47.27;98267.28;5051163;28;20153;-73
2021/07/05 07:37:02;;;;;;;2.03;1.33;;;;;;;21.98;47.82;98237.91;5051829;28;20447;-74
2021/07/05 07:39:34;;;;;;;2.33;1.60;;;;;;;22.25;47.32;98242.94;5049645;28;20029;-74
2021/07/05 07:41:59;;;;;;;1.50;1.30;;;;;;;22.23;47.21;98237.00;5048876;28;20028;-74
2021/07/05 07:44:25;;;;;;;1.40;1.30;;;;;;;22.20;47.23;98230.22;5049396;28;20047;-74
2021/07/05 07:46:50;;;;;;;1.35;1.25;;;;;;;22.15;47.24;98239.34;5051087;28;20420;-73
2021/07/05 07:49:16;;;;;;;1.50;1.40;;;;;;;22.53;46.90;98232.13;5048766;28;20032;-74
2021/07/05 07:51:42;;;;;;;1.38;1.30;;;;;;;22.43;46.77;98235.56;5048415;28;20025;-72
2021/07/05 07:54:07;;;;;;;1.23;1.02;;;;;;;22.81;46.18;98227.50;5049607;28;20086;-72
2021/07/05 07:56:34;;;;;;;1.77;1.50;;;;;;;22.93;46.37;98227.41;5051040;28;20107;-72
2021/07/05 07:59:01;;;;;;;1.10;1.10;;;;;;;23.08;45.81;98238.50;5049502;28;20108;-72
2021/07/05 08:01:28;;;;;;;1.83;1.27;;;;;;;23.17;45.40;98230.78;5051462;28;20037;-75
2021/07/05 08:03:54;;;;;;;1.42;1.42;;;;;;;23.27;44.89;98235.31;5049628;28;20037;-73
2021/07/05 08:06:19;;;;;;;1.38;1.27;;;;;;;23.21;44.99;98236.63;5050479;28;20428;-71
2021/07/05 08:08:48;;;;;;;1.48;1.48;;;;;;;23.13;44.85;98244.22;5050956;28;20070;-73
2021/07/05 08:11:14;;;;;;;1.48;1.38;;;;;;;23.18;44.71;98247.31;5048407;28;20047;-73
2021/07/05 08:13:39;;;;;;;3.90;1.30;;;;;;;23.11;44.67;98251.34;5048925;28;20033;-72
2021/07/05 08:16:05;;;;;;;1.40;1.30;;;;;;;23.00;44.42;98246.91;5050110;28;20072;-73
2021/07/05 08:18:30;;;;;;;1.00;1.00;;;;;;;23.07;44.46;98263.00;5050259;28;20253;-72
2021/07/05 08:20:56;;;;;;;1.15;1.15;;;;;;;22.91;44.57;98252.03;5050151;28;20024;-68
2021/07/05 08:23:21;;;;;;;2.13;1.35;;;;;;;23.09;44.52;98250.63;5050688;28;20023;-68
2021/07/05 08:25:47;;;;;;;1.23;1.23;;;;;;;23.18;44.21;98253.38;5051486;28;20057;-67
2021/07/05 08:28:12;;;;;;;1.40;1.33;;;;;;;23.17;44.30;98259.56;5050254;28;20018;-67
2021/07/05 08:30:38;;;;;;;1.15;1.15;;;;;;;23.33;43.56;98266.25;5035269;28;20025;-67
2021/07/05 08:33:04;;;;;;;1.10;1.10;;;;;;;23.46;43.15;98260.00;5050454;28;20068;-67
2021/07/05 08:35:29;;;;;;;1.30;1.30;;;;;;;23.34;43.51;98271.34;5050984;28;20060;-67
2021/07/05 08:37:55;;;;;;;1.42;1.33;;;;;;;23.23;43.71;98268.72;5050287;28;20227;-66
2021/07/05 08:40:22;;;;;;;1.50;1.40;;;;;;;23.55;42.76;98268.91;5051683;28;20028;-67
2021/07/05 08:42:48;;;;;;;1.40;1.30;;;;;;;23.75;43.27;98272.59;5048593;28;20484;-66
2021/07/05 08:45:15;;;;;;;1.83;1.50;;;;;;;23.59;43.34;98265.91;5048296;28;20033;-67
2021/07/05 08:47:42;;;;;;;1.85;1.30;;;;;;;23.37;44.24;98268.50;5048346;28;20024;-66
2021/07/05 08:50:09;;;;;;;1.40;1.30;;;;;;;23.52;44.29;98274.38;5049536;28;20298;-66
2021/07/05 08:52:38;;;;;;;3.42;1.08;;;;;;;23.57;44.32;98270.44;5049585;28;20440;-73
2021/07/05 08:55:05;;;;;;;1.38;1.27;;;;;;;23.36;44.65;98271.25;5049417;28;20041;-73
2021/07/05 08:57:37;;;;;;;1.27;1.17;;;;;;;23.10;45.12;98273.22;5049754;28;20037;-73
2021/07/05 09:00:06;;;;;;;1.10;1.10;;;;;;;23.00;45.30;98291.38;5048194;28;20248;-72
2021/07/05 09:02:32;;;;;;;1.33;1.23;;;;;;;23.11;45.34;98272.28;5048657;28;20457;-72
2021/07/05 09:04:58;;;;;;;1.40;1.30;;;;;;;23.19;46.19;98275.13;5048625;28;21272;-72
2021/07/05 09:07:24;;;;;;;1.35;1.25;;;;;;;23.02;45.97;98280.81;5048172;28;20029;-72
2021/07/05 09:10:07;;;;;;;1.52;1.52;;;;;;;23.23;45.84;98289.66;5048910;28;20051;-72
2021/07/05 09:12:33;;;;;;;1.50;1.40;;;;;;;23.19;45.75;98283.81;5037618;28;20724;-73
2021/07/05 09:15:34;;;;;;;1.30;1.30;;;;;;;23.27;45.97;98291.09;5049355;28;20148;-73
2021/07/05 09:18:00;;;;;;;1.52;1.13;;;;;;;23.08;45.52;98288.22;5033755;28;20048;-73
2021/07/05 09:20:25;;;;;;;1.75;1.30;;;;;;;23.15;46.22;98289.41;5048302;28;20028;-72
2021/07/05 09:23:12;;;;;;;3.00;1.60;;;;;;;23.32;46.00;98294.19;5047086;28;20072;-72
2021/07/05 09:25:41;;;;;;;3.33;1.27;;;;;;;23.38;45.06;98300.75;5050325;28;20029;-72
2021/07/05 09:28:07;;;;;;;1.23;1.23;;;;;;;23.27;45.58;98304.16;5049294;28;20471;-72
2021/07/05 09:30:47;;;;;;;2.47;1.30;;;;;;;23.38;45.63;98300.75;5048375;28;20025;-72
2021/07/05 09:33:27;;;;;;;2.15;1.35;;;;;;;23.26;45.75;98293.81;5049302;28;20028;-72
2021/07/05 09:35:53;;;;;;;4.07;1.50;;;;;;;23.45;45.60;98304.59;5049801;28;20033;-72
2021/07/05 09:38:34;;;;;;;1.20;1.20;;;;;;;23.30;44.96;98295.28;5049863;28;20067;-72
2021/07/05 09:41:18;;;;;;;1.38;1.38;;;;;;;23.26;45.02;98293.81;5048931;28;20126;-67
2021/07/05 09:43:44;;;;;;;1.33;1.25;;;;;;;23.36;45.46;98300.03;5050225;28;20425;-66
2021/07/05 09:46:11;;;;;;;1.65;1.60;;;;;;;23.87;44.87;98300.44;5049986;28;20029;-66
2021/07/05 09:48:45;;;;;;;5.75;1.17;;;;;;;24.21;43.19;98296.84;5049237;28;20155;-67
2021/07/05 09:51:13;;;;;;;1.58;1.30;;;;;;;24.56;42.71;98304.50;5053085;28;20424;-67
2021/07/05 09:53:44;;;;;;;1.42;1.33;;;;;;;24.24;43.48;98298.38;5050269;28;20037;-66
2021/07/05 09:56:19;;;;;;;1.73;1.40;;;;;;;24.13;43.93;98304.47;5050395;28;20056;-67
2021/07/05 09:58:44;;;;;;;;;;;;;;;24.47;42.99;98292.13;5051925;28;20036;-66
2021/07/05 10:01:10;;;;;;;1.60;1.50;;;;;;;23.99;43.65;98291.59;5051533;28;19913;-68
2021/07/05 10:03:39;;;;;;;1.15;1.15;;;;;;;24.31;43.63;98300.41;5051954;28;20304;-68
2021/07/05 10:06:15;;;;;;;1.13;1.13;;;;;;;24.62;41.75;98290.88;5038367;28;20092;-69
2021/07/05 10:08:41;;;;;;;1.30;1.30;;;;;;;24.67;41.78;98285.25;5052252;28;20033;-68
2021/07/05 10:11:06;;;;;;;1.77;1.40;;;;;;;24.86;41.43;98295.97;5053048;28;20040;-69
2021/07/05 10:13:32;;;;;;;1.63;1.52;;;;;;;24.76;41.37;98287.97;5052140;28;20381;-69
2021/07/05 10:16:10;;;;;;;1.10;1.10;;;;;;;24.98;40.57;98287.91;5051032;28;20072;-70
2021/07/05 10:18:36;;;;;;;1.40;1.35;;;;;;;24.85;40.80;98289.88;5052284;28;20059;-69
2021/07/05 10:21:02;;;;;;;1.30;1.30;;;;;;;24.82;41.09;98284.84;5051473;28;20032;-69
2021/07/05 10:23:28;;;;;;;2.58;1.40;;;;;;;24.52;42.57;98282.97;5053503;28;20035;-69
2021/07/05 10:25:54;;;;;;;1.58;1.38;;;;;;;24.44;41.85;98287.97;5051967;28;20688;-68
2021/07/05 10:28:20;;;;;;;1.48;1.20;;;;;;;24.63;41.67;98289.09;5051772;28;20032;-69
2021/07/05 10:30:49;;;;;;;1.45;1.40;;;;;;;24.45;41.40;98291.41;5051368;28;20406;-69
2021/07/05 10:33:15;;;;;;;1.55;1.45;;;;;;;24.57;41.98;98288.63;5051398;28;20139;-70
2021/07/05 10:35:54;;;;;;;1.17;1.17;;;;;;;24.51;41.15;98290.94;5051043;28;20025;-73
2021/07/05 10:38:32;;;;;;;2.58;1.20;;;;;;;24.48;41.45;98283.31;5051681;28;20067;-72
2021/07/05 10:41:10;;;;;;;2.17;1.30;;;;;;;24.46;41.24;98275.56;5051885;28;20479;-72
2021/07/05 10:43:55;;;;;;;2.70;1.20;;;;;;;24.30;41.53;98276.94;5050734;28;20037;-72
2021/07/05 10:46:39;;;;;;;1.20;1.20;;;;;;;24.84;40.19;98268.97;5051850;28;20081;-73
2021/07/05 10:49:07;;;;;;;1.73;1.38;;;;;;;24.76;40.16;98267.00;5052445;28;20033;-71
2021/07/05 10:51:44;;;;;;;1.40;1.40;;;;;;;24.69;39.37;98267.63;5049965;28;20064;-71
2021/07/05 10:54:10;;;;;;;1.35;1.35;;;;;;;24.90;39.70;98258.03;5052421;28;20029;-71
2021/07/05 10:56:53;;;;;;;1.52;1.50;;;;;;;24.87;39.15;98260.88;5048986;28;20051;-72
2021/07/05 10:59:18;;;;;;;1.30;1.20;;;;;;;25.01;38.79;98260.56;5049398;28;20028;-73
2021/07/05 11:01:49;;;;;;;1.10;1.10;;;;;;;24.98;38.78;98264.28;5048485;28;20605;-73
2021/07/05 11:04:22;;;;;;;1.17;1.17;;;;;;;25.61;38.26;98256.38;5049929;28;20186;-74
2021/07/05 11:06:49;;;;;;;2.17;1.23;;;;;;;25.59;38.00;98261.72;5048329;28;20230;-73
2021/07/05 11:09:22;;;;;;;1.52;1.13;;;;;;;25.10;38.10;98272.91;5049340;28;20024;-74
2021/07/05 11:11:58;;;;;;;1.20;1.20;;;;;;;25.16;37.56;98266.34;5050988;28;20028;-73
2021/07/05 11:14:33;;;;;;;1.20;1.20;;;;;;;25.39;37.97;98252.91;5034485;28;20358;-74
2021/07/05 11:17:34;;;;;;;1.30;1.30;;;;;;;25.84;37.58;98252.59;5049994;28;20438;-73
2021/07/05 11:20:14;;;;;;;1.90;1.50;;;;;;;25.93;36.74;98249.13;5032881;28;20095;-74
2021/07/05 11:22:53;;;;;;;3.45;1.40;;;;;;;25.57;37.85;98261.06;5033532;28;20024;-74
2021/07/05 11:25:18;;;;;;;1.40;1.40;;;;;;;25.90;37.16;98252.03;5048997;28;20025;-73
2021/07/05 11:27:50;;;;;;;1.52;1.42;;;;;;;25.97;37.14;98257.59;5049546;28;20044;-73
2021/07/05 11:30:25;;;;;;;1.80;1.60;;;;;;;25.83;36.18;98250.91;5049096;28;20445;-73
2021/07/05 11:33:06;;;;;;;2.63;1.50;;;;;;;25.78;36.61;98239.97;5050006;28;20155;-73
2021/07/05 11:35:36;;;;;;;1.42;1.42;;;;;;;26.14;36.20;98243.81;5048822;28;20079;-73